Terminal Aerodrome Forecast
Issued by NWS

Home | Current Version | Previous Version | Text Only | Print | Product List | Glossary On
Versions: 1 2 3 4 5 6 7 8 9 10 11 12 13 14 15 16 17 18 19 20 21 22 23 24 25 26 27
000
FTUS43 KDTX 192320
TAFPTK
TAF
KPTK 192320Z 2000/2024 10011G20KT P6SM -RA BKN060 OVC100
     FM200100 11012G20KT 4SM RA BKN018 OVC040
     FM200300 12014G20KT 2SM RA BKN006 OVC015
     FM200500 14014G20KT 5SM -SHRA BKN004 OVC012
     FM201000 20015G24KT P6SM BKN016 OVC030
     FM201600 22016G26KT P6SM SHRA BKN028 BKN040 OVC150
     FM202100 26018G27KT P6SM BKN018 OVC040=

USA.gov is the U.S. government's official web portal to all federal, state and local government web resources and services.